EJA809 KCOU-KGSO
Flight info
| Callsign | EJA809 |
|---|---|
| Flight time | 1h 24m |
| Altitude | 42000 |
| Route | BOSIE IIU GZG |
| Aircraft | C700/M-SBDGHM1RWXY/LB2 |
Departure
| Time | 2026-05-07 18:06 |
|---|---|
| Airport | Columbia Regional Airport (KCOU) |
Arrival
| Time | 2026-05-07 19:30 |
|---|---|
| Airport | Piedmont Triad International Airport (KGSO) |
| Time | Latitude | Longitude | Altitude | Speed | Heading |
|---|---|---|---|---|---|
| 2026-05-07 17:41 | 38.81869 | -92.21975 | 889 ft | 0 kts | 116° |
| 2026-05-07 18:01 | 38.81869 | -92.21973 | 889 ft | 1 kts | 104° |
| 2026-05-07 18:01 | 38.81872 | -92.21958 | 889 ft | 5 kts | 74° |
| 2026-05-07 18:01 | 38.81867 | -92.21878 | 889 ft | 11 kts | 94° |
| 2026-05-07 18:02 | 38.82016 | -92.21769 | 889 ft | 12 kts | 45° |
| 2026-05-07 18:02 | 38.82000 | -92.21656 | 890 ft | 15 kts | 110° |
| 2026-05-07 18:02 | 38.81950 | -92.21518 | 889 ft | 19 kts | 133° |
| 2026-05-07 18:03 | 38.81860 | -92.21406 | 889 ft | 17 kts | 136° |
| 2026-05-07 18:03 | 38.81782 | -92.21310 | 890 ft | 14 kts | 136° |
| 2026-05-07 18:03 | 38.81715 | -92.21225 | 889 ft | 13 kts | 135° |
| 2026-05-07 18:03 | 38.81654 | -92.21150 | 889 ft | 12 kts | 136° |
| 2026-05-07 18:04 | 38.81601 | -92.21083 | 889 ft | 9 kts | 128° |
| 2026-05-07 18:04 | 38.81599 | -92.21023 | 885 ft | 8 kts | 61° |
| 2026-05-07 18:04 | 38.81607 | -92.21008 | 884 ft | 0 kts | 52° |
| 2026-05-07 18:05 | 38.81619 | -92.20993 | 883 ft | 5 kts | 41° |
| 2026-05-07 18:05 | 38.81664 | -92.20971 | 880 ft | 8 kts | 338° |
| 2026-05-07 18:05 | 38.81692 | -92.20999 | 881 ft | 7 kts | 317° |
| 2026-05-07 18:05 | 38.81753 | -92.21073 | 889 ft | 19 kts | 316° |
| 2026-05-07 18:06 | 38.82070 | -92.21475 | 891 ft | 114 kts | 315° |
| 2026-05-07 18:06 | 38.82803 | -92.22414 | 1313 ft | 169 kts | 311° |
| 2026-05-07 18:06 | 38.83416 | -92.23152 | 2108 ft | 189 kts | 313° |
| 2026-05-07 18:06 | 38.84855 | -92.24727 | 4090 ft | 222 kts | 314° |
| 2026-05-07 18:07 | 38.85682 | -92.25659 | 4880 ft | 244 kts | 314° |
| 2026-05-07 18:07 | 38.86994 | -92.27042 | 6449 ft | 248 kts | 324° |
| 2026-05-07 18:07 | 38.88675 | -92.27594 | 8176 ft | 265 kts | 357° |
| 2026-05-07 18:07 | 38.90458 | -92.26862 | 10047 ft | 279 kts | 28° |
| 2026-05-07 18:08 | 38.91803 | -92.24997 | 11739 ft | 299 kts | 55° |
| 2026-05-07 18:08 | 38.92485 | -92.22326 | 12945 ft | 335 kts | 79° |
| 2026-05-07 18:08 | 38.92614 | -92.19207 | 14094 ft | 365 kts | 87° |
| 2026-05-07 18:08 | 38.92578 | -92.15830 | 15079 ft | 393 kts | 89° |
| 2026-05-07 18:09 | 38.92492 | -92.12203 | 16009 ft | 420 kts | 90° |
| 2026-05-07 18:09 | 38.92388 | -92.08331 | 16867 ft | 448 kts | 90° |
| 2026-05-07 18:09 | 38.92276 | -92.04295 | 18349 ft | 452 kts | 89° |
| 2026-05-07 18:09 | 38.92166 | -92.00264 | 19812 ft | 453 kts | 89° |
| 2026-05-07 18:10 | 38.92065 | -91.96169 | 20621 ft | 471 kts | 89° |
| 2026-05-07 18:10 | 38.91922 | -91.91918 | 21590 ft | 477 kts | 92° |
| 2026-05-07 18:10 | 38.91608 | -91.87635 | 22542 ft | 489 kts | 95° |
| 2026-05-07 18:10 | 38.91142 | -91.83284 | 23691 ft | 491 kts | 98° |
| 2026-05-07 18:11 | 38.90661 | -91.78932 | 24808 ft | 491 kts | 96° |
| 2026-05-07 18:11 | 38.90333 | -91.74562 | 25844 ft | 492 kts | 93° |
| 2026-05-07 18:11 | 38.90129 | -91.70169 | 26874 ft | 494 kts | 92° |
| 2026-05-07 18:11 | 38.89872 | -91.65765 | 27907 ft | 495 kts | 96° |
| 2026-05-07 18:12 | 38.89459 | -91.61374 | 28966 ft | 495 kts | 98° |
| 2026-05-07 18:12 | 38.88987 | -91.56992 | 30015 ft | 497 kts | 98° |
| 2026-05-07 18:12 | 38.88618 | -91.52625 | 30892 ft | 498 kts | 96° |
| 2026-05-07 18:12 | 38.88361 | -91.48171 | 31678 ft | 501 kts | 95° |
| 2026-05-07 18:13 | 38.88083 | -91.43687 | 32441 ft | 504 kts | 97° |
| 2026-05-07 18:13 | 38.87681 | -91.39212 | 33212 ft | 506 kts | 99° |
| 2026-05-07 18:13 | 38.87214 | -91.34720 | 33969 ft | 508 kts | 99° |
| 2026-05-07 18:13 | 38.86819 | -91.30197 | 34619 ft | 510 kts | 97° |
| 2026-05-07 18:14 | 38.86524 | -91.25660 | 35339 ft | 510 kts | 96° |
| 2026-05-07 18:14 | 38.86228 | -91.21193 | 36048 ft | 508 kts | 97° |
| 2026-05-07 18:14 | 38.85829 | -91.16692 | 36642 ft | 510 kts | 99° |
| 2026-05-07 18:14 | 38.85364 | -91.12125 | 36972 ft | 518 kts | 99° |
| 2026-05-07 18:15 | 38.84963 | -91.07540 | 37753 ft | 516 kts | 97° |
| 2026-05-07 18:15 | 38.84639 | -91.02951 | 38342 ft | 520 kts | 96° |
| 2026-05-07 18:15 | 38.84297 | -90.98293 | 38729 ft | 526 kts | 97° |
| 2026-05-07 18:15 | 38.83874 | -90.93670 | 39600 ft | 514 kts | 99° |
| 2026-05-07 18:16 | 38.83422 | -90.89126 | 40164 ft | 515 kts | 98° |
| 2026-05-07 18:16 | 38.83018 | -90.84540 | 40596 ft | 518 kts | 97° |
| 2026-05-07 18:16 | 38.82676 | -90.79924 | 41052 ft | 520 kts | 96° |
| 2026-05-07 18:16 | 38.82321 | -90.75295 | 41493 ft | 522 kts | 97° |
| 2026-05-07 18:17 | 38.81894 | -90.70662 | 41938 ft | 524 kts | 98° |
| 2026-05-07 18:17 | 38.81429 | -90.66020 | 42371 ft | 526 kts | 98° |
| 2026-05-07 18:17 | 38.81007 | -90.61352 | 42788 ft | 529 kts | 97° |
| 2026-05-07 18:17 | 38.80642 | -90.56649 | 43205 ft | 531 kts | 96° |
| 2026-05-07 18:18 | 38.80270 | -90.51929 | 43626 ft | 533 kts | 97° |
| 2026-05-07 18:18 | 38.79828 | -90.47202 | 44034 ft | 535 kts | 98° |
| 2026-05-07 18:18 | 38.79352 | -90.42517 | 44422 ft | 538 kts | 98° |
| 2026-05-07 18:18 | 38.78908 | -90.37745 | 44801 ft | 540 kts | 97° |
| 2026-05-07 18:19 | 38.78522 | -90.32948 | 45077 ft | 544 kts | 96° |
| 2026-05-07 18:19 | 38.77659 | -90.23119 | 45084 ft | 562 kts | 98° |
| 2026-05-07 18:20 | 38.76678 | -90.13238 | 45092 ft | 555 kts | 97° |
| 2026-05-07 18:20 | 38.75860 | -90.03388 | 45088 ft | 558 kts | 97° |
| 2026-05-07 18:21 | 38.74866 | -89.93539 | 45087 ft | 562 kts | 99° |
| 2026-05-07 18:21 | 38.73956 | -89.83622 | 45082 ft | 559 kts | 97° |
| 2026-05-07 18:22 | 38.73054 | -89.73752 | 45083 ft | 557 kts | 99° |
| 2026-05-07 18:22 | 38.72025 | -89.63887 | 45082 ft | 560 kts | 98° |
| 2026-05-07 18:23 | 38.71155 | -89.53927 | 45086 ft | 564 kts | 98° |
| 2026-05-07 18:23 | 38.70115 | -89.43999 | 45093 ft | 561 kts | 99° |
| 2026-05-07 18:24 | 38.69160 | -89.34156 | 45096 ft | 559 kts | 97° |
| 2026-05-07 18:24 | 38.68224 | -89.24284 | 45092 ft | 559 kts | 99° |
| 2026-05-07 18:25 | 38.67144 | -89.14395 | 45094 ft | 562 kts | 98° |
| 2026-05-07 18:25 | 38.66203 | -89.04422 | 45094 ft | 564 kts | 101° |
| 2026-05-07 18:26 | 38.64625 | -88.94691 | 45094 ft | 562 kts | 102° |
| 2026-05-07 18:26 | 38.63403 | -88.84816 | 45093 ft | 560 kts | 101° |
| 2026-05-07 18:27 | 38.61817 | -88.75091 | 45090 ft | 558 kts | 105° |
| 2026-05-07 18:27 | 38.60388 | -88.65304 | 45089 ft | 562 kts | 100° |
| 2026-05-07 18:28 | 38.59021 | -88.55441 | 45089 ft | 564 kts | 104° |
| 2026-05-07 18:28 | 38.57372 | -88.45641 | 45087 ft | 564 kts | 103° |
| 2026-05-07 18:29 | 38.56072 | -88.35835 | 45081 ft | 562 kts | 102° |
| 2026-05-07 18:29 | 38.54486 | -88.26093 | 45087 ft | 559 kts | 105° |
| 2026-05-07 18:30 | 38.52989 | -88.16311 | 45089 ft | 563 kts | 101° |
| 2026-05-07 18:30 | 38.51579 | -88.06445 | 45086 ft | 566 kts | 104° |
| 2026-05-07 18:31 | 38.49900 | -87.96608 | 45081 ft | 565 kts | 103° |
| 2026-05-07 18:31 | 38.48515 | -87.86742 | 45082 ft | 563 kts | 102° |
| 2026-05-07 18:32 | 38.46925 | -87.77052 | 45083 ft | 561 kts | 105° |
| 2026-05-07 18:32 | 38.45360 | -87.67255 | 45084 ft | 566 kts | 102° |
| 2026-05-07 18:33 | 38.43906 | -87.57359 | 45085 ft | 567 kts | 104° |
| 2026-05-07 18:33 | 38.42201 | -87.47562 | 45084 ft | 565 kts | 104° |
| 2026-05-07 18:34 | 38.40753 | -87.37734 | 45081 ft | 563 kts | 103° |
| 2026-05-07 18:34 | 38.39130 | -87.27948 | 45085 ft | 565 kts | 106° |
| 2026-05-07 18:35 | 38.37496 | -87.18111 | 45081 ft | 569 kts | 103° |
| 2026-05-07 18:35 | 38.36014 | -87.08276 | 45084 ft | 566 kts | 105° |
| 2026-05-07 18:36 | 38.34280 | -86.98520 | 45081 ft | 564 kts | 105° |
| 2026-05-07 18:36 | 38.32767 | -86.88706 | 45084 ft | 565 kts | 103° |
| 2026-05-07 18:37 | 38.31123 | -86.78896 | 45084 ft | 568 kts | 106° |
| 2026-05-07 18:37 | 38.29422 | -86.69049 | 45084 ft | 569 kts | 104° |
| 2026-05-07 18:38 | 38.27896 | -86.59182 | 45066 ft | 565 kts | 105° |
| 2026-05-07 18:38 | 38.26132 | -86.49452 | 45068 ft | 565 kts | 106° |
| 2026-05-07 18:39 | 38.24547 | -86.39606 | 45066 ft | 570 kts | 104° |
| 2026-05-07 18:39 | 38.22890 | -86.29807 | 45062 ft | 570 kts | 107° |
| 2026-05-07 18:40 | 38.21127 | -86.19998 | 45049 ft | 568 kts | 105° |
| 2026-05-07 18:40 | 38.20358 | -86.15089 | 44911 ft | 562 kts | 104° |
| 2026-05-07 18:40 | 38.19579 | -86.10229 | 43942 ft | 559 kts | 105° |
| 2026-05-07 18:40 | 38.18714 | -86.05401 | 42790 ft | 559 kts | 107° |
| 2026-05-07 18:41 | 38.17801 | -86.00585 | 41578 ft | 562 kts | 107° |
| 2026-05-07 18:41 | 38.16933 | -85.95714 | 40347 ft | 566 kts | 105° |
| 2026-05-07 18:41 | 38.16140 | -85.90789 | 39139 ft | 570 kts | 104° |
| 2026-05-07 18:41 | 38.15345 | -85.85840 | 37723 ft | 573 kts | 105° |
| 2026-05-07 18:42 | 38.14466 | -85.80884 | 36205 ft | 576 kts | 107° |
| 2026-05-07 18:42 | 38.13524 | -85.75928 | 34693 ft | 579 kts | 107° |
| 2026-05-07 18:42 | 38.12615 | -85.70983 | 32994 ft | 584 kts | 106° |
| 2026-05-07 18:42 | 38.11771 | -85.65937 | 31397 ft | 582 kts | 104° |
| 2026-05-07 18:43 | 38.10956 | -85.60937 | 29838 ft | 574 kts | 105° |
| 2026-05-07 18:43 | 38.09810 | -85.56147 | 27760 ft | 564 kts | 115° |
| 2026-05-07 18:43 | 38.08217 | -85.51645 | 26405 ft | 548 kts | 120° |
| 2026-05-07 18:43 | 38.06625 | -85.47326 | 25000 ft | 534 kts | 118° |
| 2026-05-07 18:44 | 38.05212 | -85.43007 | 23636 ft | 525 kts | 115° |
| 2026-05-07 18:44 | 38.03898 | -85.38797 | 23060 ft | 498 kts | 115° |
| 2026-05-07 18:44 | 38.02528 | -85.34796 | 23054 ft | 503 kts | 118° |
| 2026-05-07 18:44 | 38.00992 | -85.30737 | 23052 ft | 512 kts | 120° |
| 2026-05-07 18:45 | 37.99478 | -85.26713 | 23053 ft | 512 kts | 118° |
| 2026-05-07 18:45 | 37.98058 | -85.22546 | 23055 ft | 517 kts | 115° |
| 2026-05-07 18:45 | 37.96718 | -85.18319 | 23055 ft | 515 kts | 115° |
| 2026-05-07 18:45 | 37.95328 | -85.14139 | 23056 ft | 512 kts | 117° |
| 2026-05-07 18:46 | 37.93822 | -85.10043 | 23054 ft | 514 kts | 119° |
| 2026-05-07 18:46 | 37.92264 | -85.05960 | 23053 ft | 514 kts | 119° |
| 2026-05-07 18:46 | 37.90796 | -85.01847 | 23051 ft | 513 kts | 116° |
| 2026-05-07 18:46 | 37.89429 | -84.97651 | 23051 ft | 514 kts | 115° |
| 2026-05-07 18:47 | 37.88056 | -84.93466 | 23044 ft | 515 kts | 116° |
| 2026-05-07 18:47 | 37.86575 | -84.89334 | 23044 ft | 514 kts | 119° |
| 2026-05-07 18:47 | 37.85185 | -84.85232 | 23039 ft | 516 kts | 110° |
| 2026-05-07 18:47 | 37.84064 | -84.80916 | 23047 ft | 514 kts | 114° |
| 2026-05-07 18:48 | 37.82588 | -84.76802 | 23047 ft | 512 kts | 121° |
| 2026-05-07 18:48 | 37.80884 | -84.72854 | 23048 ft | 512 kts | 124° |
| 2026-05-07 18:48 | 37.79126 | -84.68936 | 23047 ft | 513 kts | 123° |
| 2026-05-07 18:48 | 37.77515 | -84.64899 | 23050 ft | 514 kts | 118° |
| 2026-05-07 18:49 | 37.76104 | -84.60738 | 23047 ft | 515 kts | 115° |
| 2026-05-07 18:49 | 37.74824 | -84.56507 | 23043 ft | 516 kts | 113° |
| 2026-05-07 18:49 | 37.73533 | -84.52276 | 23044 ft | 515 kts | 116° |
| 2026-05-07 18:49 | 37.72084 | -84.48137 | 23046 ft | 515 kts | 119° |
| 2026-05-07 18:50 | 37.70506 | -84.44087 | 23048 ft | 514 kts | 121° |
| 2026-05-07 18:50 | 37.68895 | -84.40118 | 23049 ft | 515 kts | 121° |
| 2026-05-07 18:50 | 37.67360 | -84.36023 | 23052 ft | 517 kts | 118° |
| 2026-05-07 18:50 | 37.65957 | -84.31841 | 23053 ft | 517 kts | 115° |
| 2026-05-07 18:51 | 37.64611 | -84.27630 | 23054 ft | 515 kts | 116° |
| 2026-05-07 18:51 | 37.63175 | -84.23502 | 23048 ft | 514 kts | 119° |
| 2026-05-07 18:51 | 37.61607 | -84.19449 | 23049 ft | 515 kts | 121° |
| 2026-05-07 18:51 | 37.59998 | -84.15403 | 23046 ft | 516 kts | 120° |
| 2026-05-07 18:52 | 37.58491 | -84.11291 | 23043 ft | 517 kts | 117° |
| 2026-05-07 18:52 | 37.57100 | -84.07111 | 23037 ft | 518 kts | 116° |
| 2026-05-07 18:52 | 37.55700 | -84.02913 | 23038 ft | 518 kts | 117° |
| 2026-05-07 18:52 | 37.54714 | -84.00182 | 23025 ft | 517 kts | 119° |
| 2026-05-07 18:53 | 37.52605 | -83.94812 | 23025 ft | 516 kts | 121° |
| 2026-05-07 18:53 | 37.51034 | -83.90753 | 23010 ft | 516 kts | 119° |
| 2026-05-07 18:53 | 37.49580 | -83.86614 | 23010 ft | 517 kts | 117° |
| 2026-05-07 18:53 | 37.48190 | -83.82437 | 23007 ft | 517 kts | 117° |
| 2026-05-07 18:54 | 37.47238 | -83.79689 | 23009 ft | 516 kts | 118° |
| 2026-05-07 18:54 | 37.45702 | -83.75616 | 23006 ft | 515 kts | 121° |
| 2026-05-07 18:54 | 37.44095 | -83.71585 | 23008 ft | 514 kts | 121° |
| 2026-05-07 18:54 | 37.42544 | -83.67518 | 23005 ft | 516 kts | 119° |
| 2026-05-07 18:55 | 37.41105 | -83.63384 | 23010 ft | 516 kts | 117° |
| 2026-05-07 18:55 | 37.39695 | -83.59218 | 23011 ft | 516 kts | 117° |
| 2026-05-07 18:55 | 37.38200 | -83.55114 | 23010 ft | 516 kts | 120° |
| 2026-05-07 18:55 | 37.36600 | -83.51065 | 23016 ft | 516 kts | 121° |
| 2026-05-07 18:56 | 37.35006 | -83.47018 | 23019 ft | 518 kts | 120° |
| 2026-05-07 18:56 | 37.33503 | -83.42892 | 23017 ft | 520 kts | 118° |
| 2026-05-07 18:56 | 37.32072 | -83.38714 | 23017 ft | 522 kts | 117° |
| 2026-05-07 18:56 | 37.30597 | -83.34547 | 23020 ft | 521 kts | 120° |
| 2026-05-07 18:57 | 37.29019 | -83.30458 | 23024 ft | 519 kts | 122° |
| 2026-05-07 18:57 | 37.27395 | -83.26399 | 23019 ft | 520 kts | 121° |
| 2026-05-07 18:57 | 37.25854 | -83.22349 | 23016 ft | 522 kts | 120° |
| 2026-05-07 18:57 | 37.24383 | -83.18176 | 23020 ft | 523 kts | 118° |
| 2026-05-07 18:58 | 37.22927 | -83.14001 | 23015 ft | 523 kts | 119° |
| 2026-05-07 18:58 | 37.21382 | -83.09877 | 23005 ft | 521 kts | 121° |
| 2026-05-07 18:58 | 37.19754 | -83.05813 | 23000 ft | 520 kts | 123° |
| 2026-05-07 18:58 | 37.18143 | -83.01726 | 22991 ft | 522 kts | 121° |
| 2026-05-07 18:59 | 37.16631 | -82.97588 | 22988 ft | 523 kts | 119° |
| 2026-05-07 18:59 | 37.15173 | -82.93408 | 22979 ft | 523 kts | 119° |
| 2026-05-07 18:59 | 37.13661 | -82.89263 | 22981 ft | 522 kts | 121° |
| 2026-05-07 18:59 | 37.12048 | -82.85185 | 22993 ft | 522 kts | 123° |
| 2026-05-07 19:00 | 37.10408 | -82.81120 | 22995 ft | 524 kts | 123° |
| 2026-05-07 19:00 | 37.08839 | -82.76988 | 23001 ft | 527 kts | 121° |
| 2026-05-07 19:00 | 37.07346 | -82.72786 | 23006 ft | 527 kts | 120° |
| 2026-05-07 19:00 | 37.05849 | -82.68606 | 23015 ft | 526 kts | 121° |
| 2026-05-07 19:01 | 37.04254 | -82.64482 | 23020 ft | 524 kts | 123° |
| 2026-05-07 19:01 | 37.02599 | -82.60412 | 23023 ft | 525 kts | 124° |
| 2026-05-07 19:01 | 37.00980 | -82.56300 | 23022 ft | 529 kts | 122° |
| 2026-05-07 19:01 | 36.99463 | -82.52156 | 23028 ft | 532 kts | 121° |
| 2026-05-07 19:02 | 36.97954 | -82.47919 | 23025 ft | 531 kts | 121° |
| 2026-05-07 19:02 | 36.96381 | -82.43744 | 23023 ft | 529 kts | 123° |
| 2026-05-07 19:02 | 36.94726 | -82.39648 | 23016 ft | 528 kts | 125° |
| 2026-05-07 19:02 | 36.93063 | -82.35544 | 23011 ft | 531 kts | 124° |
| 2026-05-07 19:03 | 36.91476 | -82.31363 | 23009 ft | 535 kts | 122° |
| 2026-05-07 19:03 | 36.89944 | -82.27109 | 22996 ft | 536 kts | 121° |
| 2026-05-07 19:03 | 36.88387 | -82.22885 | 22988 ft | 534 kts | 123° |
| 2026-05-07 19:03 | 36.86740 | -82.18741 | 22985 ft | 532 kts | 125° |
| 2026-05-07 19:04 | 36.85047 | -82.14623 | 22993 ft | 533 kts | 125° |
| 2026-05-07 19:04 | 36.83414 | -82.10467 | 23009 ft | 536 kts | 123° |
| 2026-05-07 19:04 | 36.81876 | -82.06204 | 22994 ft | 540 kts | 120° |
| 2026-05-07 19:04 | 36.80464 | -82.01872 | 23001 ft | 537 kts | 120° |
| 2026-05-07 19:05 | 36.78954 | -81.97599 | 23004 ft | 539 kts | 123° |
| 2026-05-07 19:05 | 36.77351 | -81.93440 | 23000 ft | 536 kts | 124° |
| 2026-05-07 19:05 | 36.75736 | -81.89263 | 22996 ft | 536 kts | 123° |
| 2026-05-07 19:05 | 36.74212 | -81.85000 | 22989 ft | 541 kts | 121° |
| 2026-05-07 19:06 | 36.72761 | -81.80658 | 22990 ft | 541 kts | 120° |
| 2026-05-07 19:06 | 36.69709 | -81.72149 | 22973 ft | 534 kts | 124° |
| 2026-05-07 19:06 | 36.68072 | -81.67985 | 22959 ft | 536 kts | 124° |
| 2026-05-07 19:07 | 36.66496 | -81.63756 | 22945 ft | 538 kts | 122° |
| 2026-05-07 19:07 | 36.65029 | -81.59472 | 22939 ft | 538 kts | 121° |
| 2026-05-07 19:07 | 36.63581 | -81.55189 | 22947 ft | 537 kts | 122° |
| 2026-05-07 19:07 | 36.62031 | -81.50962 | 22946 ft | 535 kts | 124° |
| 2026-05-07 19:08 | 36.60397 | -81.46807 | 22949 ft | 534 kts | 125° |
| 2026-05-07 19:08 | 36.58789 | -81.42637 | 22948 ft | 536 kts | 123° |
| 2026-05-07 19:08 | 36.57276 | -81.38375 | 22950 ft | 539 kts | 121° |
| 2026-05-07 19:08 | 36.55839 | -81.34130 | 22948 ft | 540 kts | 121° |
| 2026-05-07 19:09 | 36.54324 | -81.29870 | 22951 ft | 537 kts | 123° |
| 2026-05-07 19:09 | 36.52709 | -81.25702 | 22944 ft | 533 kts | 125° |
| 2026-05-07 19:09 | 36.51072 | -81.21564 | 22938 ft | 534 kts | 124° |
| 2026-05-07 19:09 | 36.49508 | -81.17351 | 22933 ft | 538 kts | 122° |
| 2026-05-07 19:10 | 36.48038 | -81.13081 | 22927 ft | 537 kts | 121° |
| 2026-05-07 19:10 | 36.46557 | -81.08816 | 22632 ft | 540 kts | 122° |
| 2026-05-07 19:10 | 36.44989 | -81.04641 | 21944 ft | 521 kts | 124° |
| 2026-05-07 19:10 | 36.43431 | -81.00718 | 21272 ft | 492 kts | 125° |
| 2026-05-07 19:11 | 36.41984 | -80.96977 | 20647 ft | 470 kts | 123° |
| 2026-05-07 19:11 | 36.40680 | -80.93347 | 20044 ft | 452 kts | 121° |
| 2026-05-07 19:11 | 36.39440 | -80.89802 | 19455 ft | 443 kts | 122° |
| 2026-05-07 19:11 | 36.38158 | -80.86347 | 18876 ft | 440 kts | 123° |
| 2026-05-07 19:12 | 36.36824 | -80.82943 | 18370 ft | 437 kts | 123° |
| 2026-05-07 19:12 | 36.35527 | -80.79583 | 17767 ft | 437 kts | 122° |
| 2026-05-07 19:12 | 36.34278 | -80.76168 | 17190 ft | 431 kts | 120° |
| 2026-05-07 19:12 | 36.33078 | -80.72803 | 16629 ft | 421 kts | 120° |
| 2026-05-07 19:13 | 36.31889 | -80.69584 | 16087 ft | 401 kts | 122° |
| 2026-05-07 19:13 | 36.30705 | -80.66523 | 15571 ft | 385 kts | 122° |
| 2026-05-07 19:13 | 36.29564 | -80.63581 | 15072 ft | 372 kts | 122° |
| 2026-05-07 19:13 | 36.28494 | -80.60720 | 14595 ft | 360 kts | 121° |
| 2026-05-07 19:14 | 36.27472 | -80.57918 | 14114 ft | 352 kts | 121° |
| 2026-05-07 19:14 | 36.26452 | -80.55179 | 13648 ft | 347 kts | 121° |
| 2026-05-07 19:14 | 36.25422 | -80.52495 | 13162 ft | 343 kts | 121° |
| 2026-05-07 19:14 | 36.24401 | -80.49836 | 12705 ft | 340 kts | 121° |
| 2026-05-07 19:15 | 36.23406 | -80.47191 | 12256 ft | 338 kts | 120° |
| 2026-05-07 19:15 | 36.22425 | -80.44547 | 11811 ft | 336 kts | 120° |
| 2026-05-07 19:15 | 36.21446 | -80.41935 | 11372 ft | 333 kts | 120° |
| 2026-05-07 19:15 | 36.20470 | -80.39389 | 10934 ft | 330 kts | 120° |
| 2026-05-07 19:16 | 36.19491 | -80.36833 | 10499 ft | 326 kts | 120° |
| 2026-05-07 19:16 | 36.18536 | -80.34302 | 10065 ft | 323 kts | 119° |
| 2026-05-07 19:16 | 36.17597 | -80.31794 | 9618 ft | 319 kts | 119° |
| 2026-05-07 19:16 | 36.16660 | -80.29313 | 9186 ft | 315 kts | 119° |
| 2026-05-07 19:17 | 36.15728 | -80.26884 | 8774 ft | 310 kts | 119° |
| 2026-05-07 19:17 | 36.14806 | -80.24482 | 8365 ft | 308 kts | 118° |
| 2026-05-07 19:17 | 36.13905 | -80.22105 | 7952 ft | 301 kts | 118° |
| 2026-05-07 19:17 | 36.13036 | -80.19796 | 7518 ft | 292 kts | 118° |
| 2026-05-07 19:18 | 36.12185 | -80.17547 | 7101 ft | 285 kts | 118° |
| 2026-05-07 19:18 | 36.11340 | -80.15350 | 6689 ft | 279 kts | 117° |
| 2026-05-07 19:18 | 36.10513 | -80.13199 | 6272 ft | 274 kts | 117° |
| 2026-05-07 19:18 | 36.09711 | -80.11091 | 5893 ft | 268 kts | 117° |
| 2026-05-07 19:19 | 36.08940 | -80.09054 | 5548 ft | 261 kts | 117° |
| 2026-05-07 19:19 | 36.08165 | -80.07027 | 5209 ft | 261 kts | 116° |
| 2026-05-07 19:19 | 36.07384 | -80.05003 | 4867 ft | 260 kts | 116° |
| 2026-05-07 19:19 | 36.06618 | -80.03004 | 4518 ft | 254 kts | 116° |
| 2026-05-07 19:20 | 36.05607 | -80.01271 | 4163 ft | 247 kts | 143° |
| 2026-05-07 19:20 | 36.04050 | -80.00641 | 3992 ft | 232 kts | 184° |
| 2026-05-07 19:20 | 36.02589 | -80.01369 | 3991 ft | 232 kts | 218° |
| 2026-05-07 19:20 | 36.01267 | -80.02575 | 4000 ft | 238 kts | 221° |
| 2026-05-07 19:21 | 36.00290 | -80.04165 | 4000 ft | 229 kts | 247° |
| 2026-05-07 19:21 | 35.99683 | -80.05919 | 3995 ft | 216 kts | 248° |
| 2026-05-07 19:21 | 35.98868 | -80.07400 | 3967 ft | 205 kts | 219° |
| 2026-05-07 19:21 | 35.97550 | -80.07840 | 3974 ft | 193 kts | 184° |
| 2026-05-07 19:22 | 35.96209 | -80.07829 | 3985 ft | 194 kts | 182° |
| 2026-05-07 19:22 | 35.94848 | -80.07821 | 3985 ft | 201 kts | 182° |
| 2026-05-07 19:22 | 35.93451 | -80.07814 | 3980 ft | 200 kts | 182° |
| 2026-05-07 19:22 | 35.92063 | -80.07803 | 3945 ft | 201 kts | 181° |
| 2026-05-07 19:23 | 35.90655 | -80.07791 | 3772 ft | 200 kts | 183° |
| 2026-05-07 19:23 | 35.89419 | -80.08365 | 3575 ft | 189 kts | 229° |
| 2026-05-07 19:23 | 35.89043 | -80.09828 | 3407 ft | 183 kts | 281° |
| 2026-05-07 19:23 | 35.89351 | -80.11362 | 3267 ft | 186 kts | 288° |
| 2026-05-07 19:24 | 35.89897 | -80.12790 | 3140 ft | 184 kts | 310° |
| 2026-05-07 19:24 | 35.90844 | -80.13846 | 3019 ft | 184 kts | 328° |
| 2026-05-07 19:24 | 35.92035 | -80.14352 | 2898 ft | 180 kts | 355° |
| 2026-05-07 19:24 | 35.93254 | -80.14235 | 2775 ft | 178 kts | 19° |
| 2026-05-07 19:25 | 35.94297 | -80.13448 | 2772 ft | 177 kts | 41° |
| 2026-05-07 19:25 | 35.95134 | -80.12319 | 2796 ft | 178 kts | 49° |
| 2026-05-07 19:25 | 35.95939 | -80.11182 | 2795 ft | 174 kts | 46° |
| 2026-05-07 19:25 | 35.96786 | -80.10096 | 2794 ft | 177 kts | 44° |
| 2026-05-07 19:26 | 35.97655 | -80.09020 | 2791 ft | 177 kts | 43° |
| 2026-05-07 19:26 | 35.98530 | -80.07954 | 2793 ft | 177 kts | 43° |
| 2026-05-07 19:26 | 35.99401 | -80.06866 | 2798 ft | 177 kts | 45° |
| 2026-05-07 19:26 | 36.00252 | -80.05758 | 2803 ft | 179 kts | 45° |
| 2026-05-07 19:27 | 36.01113 | -80.04659 | 2799 ft | 176 kts | 44° |
| 2026-05-07 19:27 | 36.01946 | -80.03611 | 2788 ft | 167 kts | 45° |
| 2026-05-07 19:27 | 36.02751 | -80.02581 | 2726 ft | 167 kts | 45° |
| 2026-05-07 19:27 | 36.03520 | -80.01593 | 2523 ft | 151 kts | 45° |
| 2026-05-07 19:28 | 36.04201 | -80.00725 | 2336 ft | 135 kts | 45° |
| 2026-05-07 19:28 | 36.04839 | -79.99916 | 2159 ft | 127 kts | 45° |
| 2026-05-07 19:28 | 36.05452 | -79.99131 | 1989 ft | 124 kts | 44° |
| 2026-05-07 19:28 | 36.06018 | -79.98395 | 1823 ft | 114 kts | 44° |
| 2026-05-07 19:29 | 36.06549 | -79.97739 | 1680 ft | 107 kts | 45° |
| 2026-05-07 19:29 | 36.07072 | -79.97056 | 1529 ft | 112 kts | 47° |
| 2026-05-07 19:29 | 36.07623 | -79.96356 | 1369 ft | 113 kts | 45° |
| 2026-05-07 19:29 | 36.08158 | -79.95667 | 1216 ft | 111 kts | 46° |
| 2026-05-07 19:30 | 36.08698 | -79.94993 | 1070 ft | 111 kts | 46° |
| 2026-05-07 19:30 | 36.09234 | -79.94295 | 929 ft | 108 kts | 45° |
| 2026-05-07 19:30 | 36.09679 | -79.93742 | 900 ft | 70 kts | 45° |
| 2026-05-07 19:30 | 36.09903 | -79.93460 | 901 ft | 25 kts | 46° |
| 2026-05-07 19:31 | 36.09992 | -79.93379 | 900 ft | 13 kts | 355° |
| 2026-05-07 19:31 | 36.10075 | -79.93448 | 899 ft | 12 kts | 316° |
| 2026-05-07 19:31 | 36.10070 | -79.93556 | 899 ft | 17 kts | 226° |
| 2026-05-07 19:31 | 36.09976 | -79.93674 | 899 ft | 22 kts | 225° |
| 2026-05-07 19:32 | 36.09921 | -79.93795 | 900 ft | 16 kts | 295° |
| 2026-05-07 19:32 | 36.09985 | -79.93875 | 900 ft | 6 kts | 317° |
| 2026-05-07 19:32 | 36.09982 | -79.93928 | 901 ft | 9 kts | 228° |
| 2026-05-07 19:32 | 36.09957 | -79.93963 | 901 ft | 0 kts | 228° |